sensor_id;sensor_type;location;lat;lon;timestamp;pressure;altitude;pressure_sealevel;temperature
65600;BMP280;52272;-29.642;-50.764;2022-10-31T00:01:50;99657.97;;;28.89
65600;BMP280;52272;-29.642;-50.764;2022-10-31T00:04:20;99671.41;;;28.64
65600;BMP280;52272;-29.642;-50.764;2022-10-31T00:06:50;99684.69;;;28.58
65600;BMP280;52272;-29.642;-50.764;2022-10-31T00:09:24;99695.47;;;28.35
65600;BMP280;52272;-29.642;-50.764;2022-10-31T00:11:56;99748.19;;;27.96
65600;BMP280;52272;-29.642;-50.764;2022-10-31T00:14:26;99756.50;;;27.23
65600;BMP280;52272;-29.642;-50.764;2022-10-31T00:16:56;99777.84;;;27.33
65600;BMP280;52272;-29.642;-50.764;2022-10-31T00:19:26;99776.97;;;27.31
65600;BMP280;52272;-29.642;-50.764;2022-10-31T00:21:57;99773.47;;;27.12
65600;BMP280;52272;-29.642;-50.764;2022-10-31T00:24:27;99797.22;;;27.19
65600;BMP280;52272;-29.642;-50.764;2022-10-31T00:26:57;99799.22;;;26.73
65600;BMP280;52272;-29.642;-50.764;2022-10-31T00:29:27;99811.19;;;27.13
65600;BMP280;52272;-29.642;-50.764;2022-10-31T00:31:58;99829.50;;;26.94
65600;BMP280;52272;-29.642;-50.764;2022-10-31T00:34:28;99835.31;;;27.07
65600;BMP280;52272;-29.642;-50.764;2022-10-31T00:37:00;99847.31;;;27.12
65600;BMP280;52272;-29.642;-50.764;2022-10-31T00:39:30;99843.34;;;26.69
65600;BMP280;52272;-29.642;-50.764;2022-10-31T00:42:00;99857.69;;;26.87
65600;BMP280;52272;-29.642;-50.764;2022-10-31T00:44:30;99863.25;;;27.06
65600;BMP280;52272;-29.642;-50.764;2022-10-31T00:47:04;99867.47;;;26.90
65600;BMP280;52272;-29.642;-50.764;2022-10-31T00:49:34;99873.56;;;26.71
65600;BMP280;52272;-29.642;-50.764;2022-10-31T00:52:05;99879.75;;;26.72
65600;BMP280;52272;-29.642;-50.764;2022-10-31T00:54:35;99880.75;;;26.50
65600;BMP280;52272;-29.642;-50.764;2022-10-31T00:57:05;99896.66;;;26.27
65600;BMP280;52272;-29.642;-50.764;2022-10-31T00:59:36;99892.19;;;26.39
65600;BMP280;52272;-29.642;-50.764;2022-10-31T01:02:06;99902.63;;;25.75
65600;BMP280;52272;-29.642;-50.764;2022-10-31T01:04:37;99875.63;;;25.37
65600;BMP280;52272;-29.642;-50.764;2022-10-31T01:07:07;99927.00;;;25.73
65600;BMP280;52272;-29.642;-50.764;2022-10-31T01:09:37;99922.72;;;25.62
65600;BMP280;52272;-29.642;-50.764;2022-10-31T01:12:08;99925.78;;;25.34
65600;BMP280;52272;-29.642;-50.764;2022-10-31T01:14:43;99914.44;;;25.21
65600;BMP280;52272;-29.642;-50.764;2022-10-31T01:17:17;99921.88;;;25.20
65600;BMP280;52272;-29.642;-50.764;2022-10-31T01:19:47;99925.47;;;24.99
65600;BMP280;52272;-29.642;-50.764;2022-10-31T01:22:18;99928.28;;;24.69
65600;BMP280;52272;-29.642;-50.764;2022-10-31T01:24:50;99938.38;;;24.29
65600;BMP280;52272;-29.642;-50.764;2022-10-31T01:27:20;99944.91;;;24.26
65600;BMP280;52272;-29.642;-50.764;2022-10-31T01:29:50;99941.47;;;24.03
65600;BMP280;52272;-29.642;-50.764;2022-10-31T01:32:21;99938.19;;;24.12
65600;BMP280;52272;-29.642;-50.764;2022-10-31T01:34:51;99929.84;;;23.95
65600;BMP280;52272;-29.642;-50.764;2022-10-31T01:37:22;99924.97;;;23.94
65600;BMP280;52272;-29.642;-50.764;2022-10-31T01:39:52;99931.63;;;23.55
65600;BMP280;52272;-29.642;-50.764;2022-10-31T01:42:23;99937.91;;;23.35
65600;BMP280;52272;-29.642;-50.764;2022-10-31T01:44:59;99936.59;;;23.29
65600;BMP280;52272;-29.642;-50.764;2022-10-31T01:47:32;99939.69;;;23.33
65600;BMP280;52272;-29.642;-50.764;2022-10-31T01:50:06;99926.22;;;23.12
65600;BMP280;52272;-29.642;-50.764;2022-10-31T01:52:44;99929.25;;;22.94
65600;BMP280;52272;-29.642;-50.764;2022-10-31T01:58:04;99944.09;;;23.00
65600;BMP280;52272;-29.642;-50.764;2022-10-31T02:00:38;99935.59;;;23.04
65600;BMP280;52272;-29.642;-50.764;2022-10-31T02:03:10;99918.06;;;23.12
65600;BMP280;52272;-29.642;-50.764;2022-10-31T02:05:41;99917.84;;;22.95
65600;BMP280;52272;-29.642;-50.764;2022-10-31T02:08:23;99901.94;;;22.72
65600;BMP280;52272;-29.642;-50.764;2022-10-31T02:11:03;99903.06;;;22.76
65600;BMP280;52272;-29.642;-50.764;2022-10-31T02:13:34;99900.38;;;22.76
65600;BMP280;52272;-29.642;-50.764;2022-10-31T02:16:09;99900.63;;;23.00
65600;BMP280;52272;-29.642;-50.764;2022-10-31T02:18:40;99903.34;;;23.00
65600;BMP280;52272;-29.642;-50.764;2022-10-31T02:21:15;99919.22;;;23.24
65600;BMP280;52272;-29.642;-50.764;2022-10-31T02:26:56;99950.22;;;23.36
65600;BMP280;52272;-29.642;-50.764;2022-10-31T02:30:13;99954.22;;;23.35
65600;BMP280;52272;-29.642;-50.764;2022-10-31T02:47:01;99978.75;;;23.65
65600;BMP280;52272;-29.642;-50.764;2022-10-31T02:52:23;99980.56;;;23.55
65600;BMP280;52272;-29.642;-50.764;2022-10-31T02:58:01;99987.72;;;23.38
65600;BMP280;52272;-29.642;-50.764;2022-10-31T03:00:41;99992.13;;;23.48
65600;BMP280;52272;-29.642;-50.764;2022-10-31T03:09:30;99998.75;;;23.83
65600;BMP280;52272;-29.642;-50.764;2022-10-31T03:17:56;100002.34;;;23.70
65600;BMP280;52272;-29.642;-50.764;2022-10-31T03:20:36;100005.22;;;23.72
65600;BMP280;52272;-29.642;-50.764;2022-10-31T03:23:12;100019.75;;;23.67
65600;BMP280;52272;-29.642;-50.764;2022-10-31T03:25:49;100025.78;;;23.38
65600;BMP280;52272;-29.642;-50.764;2022-10-31T03:28:29;100027.59;;;23.35
65600;BMP280;52272;-29.642;-50.764;2022-10-31T03:31:05;100027.28;;;23.46
65600;BMP280;52272;-29.642;-50.764;2022-10-31T03:33:41;100034.25;;;23.62
65600;BMP280;52272;-29.642;-50.764;2022-10-31T03:36:14;100023.31;;;23.47
65600;BMP280;52272;-29.642;-50.764;2022-10-31T03:38:46;100019.53;;;23.58
65600;BMP280;52272;-29.642;-50.764;2022-10-31T03:41:23;100008.16;;;23.74
65600;BMP280;52272;-29.642;-50.764;2022-10-31T03:44:01;100013.41;;;23.72
65600;BMP280;52272;-29.642;-50.764;2022-10-31T03:46:34;100015.06;;;23.83
65600;BMP280;52272;-29.642;-50.764;2022-10-31T03:49:05;100002.03;;;23.81
65600;BMP280;52272;-29.642;-50.764;2022-10-31T03:51:54;100007.81;;;23.85
65600;BMP280;52272;-29.642;-50.764;2022-10-31T03:57:07;99992.53;;;23.75
65600;BMP280;52272;-29.642;-50.764;2022-10-31T03:59:54;99997.28;;;23.82
65600;BMP280;52272;-29.642;-50.764;2022-10-31T04:02:30;100011.09;;;23.84
65600;BMP280;52272;-29.642;-50.764;2022-10-31T04:05:02;100022.69;;;23.84
65600;BMP280;52272;-29.642;-50.764;2022-10-31T04:07:40;100012.72;;;23.87
65600;BMP280;52272;-29.642;-50.764;2022-10-31T04:10:14;100013.78;;;23.76
65600;BMP280;52272;-29.642;-50.764;2022-10-31T04:12:52;100020.88;;;23.94
65600;BMP280;52272;-29.642;-50.764;2022-10-31T04:15:28;100020.50;;;23.90
65600;BMP280;52272;-29.642;-50.764;2022-10-31T04:18:00;100022.91;;;23.94
65600;BMP280;52272;-29.642;-50.764;2022-10-31T04:20:33;100005.78;;;23.78
65600;BMP280;52272;-29.642;-50.764;2022-10-31T04:23:18;100008.56;;;23.93
65600;BMP280;52272;-29.642;-50.764;2022-10-31T04:25:49;100005.59;;;23.76
65600;BMP280;52272;-29.642;-50.764;2022-10-31T04:28:20;100006.31;;;23.69
65600;BMP280;52272;-29.642;-50.764;2022-10-31T04:30:49;100011.41;;;23.80
65600;BMP280;52272;-29.642;-50.764;2022-10-31T04:33:23;100002.31;;;23.55
65600;BMP280;52272;-29.642;-50.764;2022-10-31T04:35:53;100013.63;;;23.74
65600;BMP280;52272;-29.642;-50.764;2022-10-31T04:38:24;100020.47;;;23.75
65600;BMP280;52272;-29.642;-50.764;2022-10-31T04:40:54;100021.78;;;23.74
65600;BMP280;52272;-29.642;-50.764;2022-10-31T04:43:37;100023.38;;;23.70
65600;BMP280;52272;-29.642;-50.764;2022-10-31T04:46:07;100025.91;;;23.68
65600;BMP280;52272;-29.642;-50.764;2022-10-31T04:48:38;100020.81;;;23.64
65600;BMP280;52272;-29.642;-50.764;2022-10-31T04:51:08;100013.88;;;23.48
65600;BMP280;52272;-29.642;-50.764;2022-10-31T04:53:39;100018.63;;;23.55
65600;BMP280;52272;-29.642;-50.764;2022-10-31T04:56:38;100032.03;;;23.10
65600;BMP280;52272;-29.642;-50.764;2022-10-31T04:59:17;100036.50;;;23.08
65600;BMP280;52272;-29.642;-50.764;2022-10-31T05:01:53;100049.66;;;23.24
65600;BMP280;52272;-29.642;-50.764;2022-10-31T05:04:36;100065.31;;;22.83
65600;BMP280;52272;-29.642;-50.764;2022-10-31T05:07:07;100060.63;;;23.11
65600;BMP280;52272;-29.642;-50.764;2022-10-31T05:09:38;100062.19;;;22.99
65600;BMP280;52272;-29.642;-50.764;2022-10-31T05:12:07;100077.69;;;22.91
65600;BMP280;52272;-29.642;-50.764;2022-10-31T05:14:56;100067.09;;;22.81
65600;BMP280;52272;-29.642;-50.764;2022-10-31T05:17:45;100058.81;;;22.86
65600;BMP280;52272;-29.642;-50.764;2022-10-31T05:20:44;100057.56;;;22.87
65600;BMP280;52272;-29.642;-50.764;2022-10-31T05:23:37;100065.84;;;22.82
65600;BMP280;52272;-29.642;-50.764;2022-10-31T05:26:16;100077.56;;;22.77
65600;BMP280;52272;-29.642;-50.764;2022-10-31T05:28:47;100079.97;;;22.60
65600;BMP280;52272;-29.642;-50.764;2022-10-31T05:31:17;100080.22;;;22.49
65600;BMP280;52272;-29.642;-50.764;2022-10-31T05:33:50;100077.25;;;22.60
65600;BMP280;52272;-29.642;-50.764;2022-10-31T05:36:40;100079.38;;;22.00
65600;BMP280;52272;-29.642;-50.764;2022-10-31T05:39:14;100081.28;;;21.92
65600;BMP280;52272;-29.642;-50.764;2022-10-31T05:41:48;100092.31;;;21.94
65600;BMP280;52272;-29.642;-50.764;2022-10-31T05:44:26;100098.41;;;22.20
65600;BMP280;52272;-29.642;-50.764;2022-10-31T05:47:19;100099.22;;;22.28
65600;BMP280;52272;-29.642;-50.764;2022-10-31T05:49:55;100087.34;;;22.18
65600;BMP280;52272;-29.642;-50.764;2022-10-31T05:52:43;100063.19;;;21.61
65600;BMP280;52272;-29.642;-50.764;2022-10-31T05:55:21;100057.38;;;21.44
65600;BMP280;52272;-29.642;-50.764;2022-10-31T05:58:23;100056.09;;;21.32
65600;BMP280;52272;-29.642;-50.764;2022-10-31T06:01:06;100055.47;;;21.39
65600;BMP280;52272;-29.642;-50.764;2022-10-31T06:03:38;100056.47;;;21.62
65600;BMP280;52272;-29.642;-50.764;2022-10-31T06:06:09;100056.91;;;21.66
65600;BMP280;52272;-29.642;-50.764;2022-10-31T06:08:41;100074.50;;;21.85
65600;BMP280;52272;-29.642;-50.764;2022-10-31T06:11:19;100074.63;;;21.80
65600;BMP280;52272;-29.642;-50.764;2022-10-31T06:14:05;100078.16;;;21.88
65600;BMP280;52272;-29.642;-50.764;2022-10-31T06:17:01;100090.53;;;21.96
65600;BMP280;52272;-29.642;-50.764;2022-10-31T06:19:49;100093.88;;;21.89
65600;BMP280;52272;-29.642;-50.764;2022-10-31T06:22:22;100080.88;;;21.88
65600;BMP280;52272;-29.642;-50.764;2022-10-31T06:24:52;100092.31;;;21.94
65600;BMP280;52272;-29.642;-50.764;2022-10-31T06:27:28;100095.38;;;21.90
65600;BMP280;52272;-29.642;-50.764;2022-10-31T06:30:05;100097.66;;;21.86
65600;BMP280;52272;-29.642;-50.764;2022-10-31T06:32:37;100101.13;;;21.74
65600;BMP280;52272;-29.642;-50.764;2022-10-31T06:35:09;100096.09;;;21.91
65600;BMP280;52272;-29.642;-50.764;2022-10-31T06:37:41;100086.50;;;21.90
65600;BMP280;52272;-29.642;-50.764;2022-10-31T06:40:28;100085.84;;;21.97
65600;BMP280;52272;-29.642;-50.764;2022-10-31T06:43:17;100095.44;;;22.11
65600;BMP280;52272;-29.642;-50.764;2022-10-31T06:45:47;100107.72;;;22.12
65600;BMP280;52272;-29.642;-50.764;2022-10-31T06:48:17;100101.06;;;22.00
65600;BMP280;52272;-29.642;-50.764;2022-10-31T06:51:06;100107.31;;;22.08
65600;BMP280;52272;-29.642;-50.764;2022-10-31T06:53:37;100099.81;;;22.01
65600;BMP280;52272;-29.642;-50.764;2022-10-31T06:56:12;100096.09;;;21.78
65600;BMP280;52272;-29.642;-50.764;2022-10-31T06:58:47;100080.31;;;21.89
65600;BMP280;52272;-29.642;-50.764;2022-10-31T07:01:27;100080.97;;;21.82
65600;BMP280;52272;-29.642;-50.764;2022-10-31T07:03:59;100083.09;;;21.76
65600;BMP280;52272;-29.642;-50.764;2022-10-31T07:06:34;100086.34;;;21.49
65600;BMP280;52272;-29.642;-50.764;2022-10-31T07:09:05;100099.97;;;21.69
65600;BMP280;52272;-29.642;-50.764;2022-10-31T07:11:36;100096.97;;;21.60
65600;BMP280;52272;-29.642;-50.764;2022-10-31T07:14:07;100102.16;;;21.58
65600;BMP280;52272;-29.642;-50.764;2022-10-31T07:16:37;100109.66;;;21.78
65600;BMP280;52272;-29.642;-50.764;2022-10-31T07:19:08;100128.22;;;21.87
65600;BMP280;52272;-29.642;-50.764;2022-10-31T07:21:38;100138.66;;;21.70
65600;BMP280;52272;-29.642;-50.764;2022-10-31T07:24:10;100127.16;;;21.77
65600;BMP280;52272;-29.642;-50.764;2022-10-31T07:26:42;100121.44;;;21.29
65600;BMP280;52272;-29.642;-50.764;2022-10-31T07:29:15;100112.47;;;21.59
65600;BMP280;52272;-29.642;-50.764;2022-10-31T07:31:46;100108.84;;;21.57
65600;BMP280;52272;-29.642;-50.764;2022-10-31T07:34:22;100107.91;;;21.54
65600;BMP280;52272;-29.642;-50.764;2022-10-31T07:37:13;100116.13;;;21.36
65600;BMP280;52272;-29.642;-50.764;2022-10-31T07:39:47;100104.16;;;21.32
65600;BMP280;52272;-29.642;-50.764;2022-10-31T07:42:18;100106.56;;;21.22
65600;BMP280;52272;-29.642;-50.764;2022-10-31T07:44:50;100110.69;;;21.23
65600;BMP280;52272;-29.642;-50.764;2022-10-31T07:47:45;100127.31;;;21.01
65600;BMP280;52272;-29.642;-50.764;2022-10-31T07:50:42;100125.13;;;21.00
65600;BMP280;52272;-29.642;-50.764;2022-10-31T07:53:31;100134.00;;;21.00
65600;BMP280;52272;-29.642;-50.764;2022-10-31T07:56:11;100142.91;;;20.95
65600;BMP280;52272;-29.642;-50.764;2022-10-31T07:58:42;100159.75;;;20.88
65600;BMP280;52272;-29.642;-50.764;2022-10-31T08:01:13;100183.84;;;20.36
65600;BMP280;52272;-29.642;-50.764;2022-10-31T08:03:52;100192.59;;;20.29
65600;BMP280;52272;-29.642;-50.764;2022-10-31T08:06:41;100200.03;;;20.00
65600;BMP280;52272;-29.642;-50.764;2022-10-31T08:09:34;100214.09;;;20.16
65600;BMP280;52272;-29.642;-50.764;2022-10-31T08:12:16;100219.88;;;20.08
65600;BMP280;52272;-29.642;-50.764;2022-10-31T08:14:46;100219.81;;;20.31
65600;BMP280;52272;-29.642;-50.764;2022-10-31T08:17:19;100219.88;;;20.26
65600;BMP280;52272;-29.642;-50.764;2022-10-31T08:20:02;100230.84;;;20.15
65600;BMP280;52272;-29.642;-50.764;2022-10-31T08:22:36;100248.88;;;19.83
65600;BMP280;52272;-29.642;-50.764;2022-10-31T08:25:11;100262.16;;;19.76
65600;BMP280;52272;-29.642;-50.764;2022-10-31T08:27:42;100273.16;;;20.13
65600;BMP280;52272;-29.642;-50.764;2022-10-31T08:30:18;100275.88;;;20.13
65600;BMP280;52272;-29.642;-50.764;2022-10-31T08:33:14;100287.50;;;20.02
65600;BMP280;52272;-29.642;-50.764;2022-10-31T08:36:04;100299.31;;;20.05
65600;BMP280;52272;-29.642;-50.764;2022-10-31T08:39:01;100305.47;;;19.70
65600;BMP280;52272;-29.642;-50.764;2022-10-31T08:41:31;100330.69;;;19.84
65600;BMP280;52272;-29.642;-50.764;2022-10-31T08:44:01;100343.41;;;19.89
65600;BMP280;52272;-29.642;-50.764;2022-10-31T08:46:32;100353.84;;;19.74
65600;BMP280;52272;-29.642;-50.764;2022-10-31T08:49:02;100358.13;;;19.58
65600;BMP280;52272;-29.642;-50.764;2022-10-31T08:51:33;100355.22;;;19.51
65600;BMP280;52272;-29.642;-50.764;2022-10-31T08:54:04;100362.72;;;19.69
65600;BMP280;52272;-29.642;-50.764;2022-10-31T08:56:34;100363.63;;;19.77
65600;BMP280;52272;-29.642;-50.764;2022-10-31T08:59:13;100383.34;;;19.72
65600;BMP280;52272;-29.642;-50.764;2022-10-31T09:02:12;100381.16;;;19.65
65600;BMP280;52272;-29.642;-50.764;2022-10-31T09:04:43;100395.94;;;19.99
65600;BMP280;52272;-29.642;-50.764;2022-10-31T09:07:13;100416.09;;;19.98
65600;BMP280;52272;-29.642;-50.764;2022-10-31T09:09:48;100413.59;;;19.65
65600;BMP280;52272;-29.642;-50.764;2022-10-31T09:12:19;100413.13;;;19.61
65600;BMP280;52272;-29.642;-50.764;2022-10-31T09:15:09;100449.66;;;19.73
65600;BMP280;52272;-29.642;-50.764;2022-10-31T09:18:02;100461.56;;;19.48
65600;BMP280;52272;-29.642;-50.764;2022-10-31T09:20:50;100469.97;;;19.85
65600;BMP280;52272;-29.642;-50.764;2022-10-31T09:23:22;100447.50;;;19.60
65600;BMP280;52272;-29.642;-50.764;2022-10-31T09:25:54;100474.88;;;19.92
65600;BMP280;52272;-29.642;-50.764;2022-10-31T09:28:47;100486.34;;;20.09
65600;BMP280;52272;-29.642;-50.764;2022-10-31T09:31:18;100494.31;;;19.28
65600;BMP280;52272;-29.642;-50.764;2022-10-31T09:33:48;100490.56;;;19.42
65600;BMP280;52272;-29.642;-50.764;2022-10-31T09:36:40;100503.88;;;19.29
65600;BMP280;52272;-29.642;-50.764;2022-10-31T09:39:28;100521.50;;;19.52
65600;BMP280;52272;-29.642;-50.764;2022-10-31T09:45:20;100544.59;;;19.42
65600;BMP280;52272;-29.642;-50.764;2022-10-31T09:50:43;100555.69;;;19.27
65600;BMP280;52272;-29.642;-50.764;2022-10-31T09:56:27;100573.63;;;19.14
65600;BMP280;52272;-29.642;-50.764;2022-10-31T09:59:02;100578.00;;;19.39
65600;BMP280;52272;-29.642;-50.764;2022-10-31T10:01:53;100577.81;;;19.04
65600;BMP280;52272;-29.642;-50.764;2022-10-31T10:04:33;100583.94;;;19.15
65600;BMP280;52272;-29.642;-50.764;2022-10-31T10:07:19;100597.19;;;19.30
65600;BMP280;52272;-29.642;-50.764;2022-10-31T10:22:16;100609.69;;;19.38
65600;BMP280;52272;-29.642;-50.764;2022-10-31T10:24:55;100632.06;;;19.17
65600;BMP280;52272;-29.642;-50.764;2022-10-31T10:27:58;100633.50;;;19.34
65600;BMP280;52272;-29.642;-50.764;2022-10-31T10:33:20;100632.78;;;19.39
65600;BMP280;52272;-29.642;-50.764;2022-10-31T10:35:53;100641.88;;;19.25
65600;BMP280;52272;-29.642;-50.764;2022-10-31T10:41:00;100648.03;;;19.26
65600;BMP280;52272;-29.642;-50.764;2022-10-31T10:43:37;100657.59;;;19.38
65600;BMP280;52272;-29.642;-50.764;2022-10-31T10:46:18;100668.38;;;19.60
65600;BMP280;52272;-29.642;-50.764;2022-10-31T10:58:08;100680.16;;;19.62
65600;BMP280;52272;-29.642;-50.764;2022-10-31T11:00:43;100689.50;;;19.67
65600;BMP280;52272;-29.642;-50.764;2022-10-31T11:03:19;100687.50;;;19.84
65600;BMP280;52272;-29.642;-50.764;2022-10-31T11:05:55;100693.38;;;19.77
65600;BMP280;52272;-29.642;-50.764;2022-10-31T11:11:10;100688.41;;;20.03
65600;BMP280;52272;-29.642;-50.764;2022-10-31T11:13:46;100695.28;;;20.14
65600;BMP280;52272;-29.642;-50.764;2022-10-31T11:16:35;100698.72;;;20.15
65600;BMP280;52272;-29.642;-50.764;2022-10-31T11:19:13;100702.41;;;20.12
65600;BMP280;52272;-29.642;-50.764;2022-10-31T11:21:49;100702.38;;;20.17
65600;BMP280;52272;-29.642;-50.764;2022-10-31T11:24:25;100700.41;;;20.29
65600;BMP280;52272;-29.642;-50.764;2022-10-31T11:27:16;100699.66;;;20.17
65600;BMP280;52272;-29.642;-50.764;2022-10-31T11:29:50;100695.81;;;19.97
65600;BMP280;52272;-29.642;-50.764;2022-10-31T11:32:27;100701.78;;;19.73
65600;BMP280;52272;-29.642;-50.764;2022-10-31T11:35:01;100707.09;;;20.06
65600;BMP280;52272;-29.642;-50.764;2022-10-31T11:37:35;100711.22;;;20.18
65600;BMP280;52272;-29.642;-50.764;2022-10-31T11:40:21;100721.78;;;20.21
65600;BMP280;52272;-29.642;-50.764;2022-10-31T11:42:55;100715.41;;;20.13
65600;BMP280;52272;-29.642;-50.764;2022-10-31T11:45:29;100721.38;;;19.85
65600;BMP280;52272;-29.642;-50.764;2022-10-31T11:48:02;100716.44;;;20.00
65600;BMP280;52272;-29.642;-50.764;2022-10-31T11:50:49;100714.25;;;20.04
65600;BMP280;52272;-29.642;-50.764;2022-10-31T11:53:27;100718.75;;;19.57
65600;BMP280;52272;-29.642;-50.764;2022-10-31T11:56:05;100714.28;;;19.76
65600;BMP280;52272;-29.642;-50.764;2022-10-31T11:58:36;100719.44;;;19.91
65600;BMP280;52272;-29.642;-50.764;2022-10-31T12:01:26;100728.72;;;20.12
65600;BMP280;52272;-29.642;-50.764;2022-10-31T12:06:37;100730.03;;;19.61
65600;BMP280;52272;-29.642;-50.764;2022-10-31T12:09:26;100743.75;;;19.25
65600;BMP280;52272;-29.642;-50.764;2022-10-31T12:12:02;100753.09;;;19.46
65600;BMP280;52272;-29.642;-50.764;2022-10-31T12:17:20;100776.47;;;19.60
65600;BMP280;52272;-29.642;-50.764;2022-10-31T12:20:03;100776.69;;;19.45
65600;BMP280;52272;-29.642;-50.764;2022-10-31T12:31:07;100764.44;;;19.61
65600;BMP280;52272;-29.642;-50.764;2022-10-31T12:33:55;100786.72;;;20.16
65600;BMP280;52272;-29.642;-50.764;2022-10-31T12:39:32;100814.19;;;20.42
65600;BMP280;52272;-29.642;-50.764;2022-10-31T12:56:29;100826.31;;;20.13
65600;BMP280;52272;-29.642;-50.764;2022-10-31T13:07:31;100853.84;;;20.17
65600;BMP280;52272;-29.642;-50.764;2022-10-31T13:10:19;100852.16;;;19.82
65600;BMP280;52272;-29.642;-50.764;2022-10-31T13:13:05;100854.84;;;19.93
65600;BMP280;52272;-29.642;-50.764;2022-10-31T13:15:48;100861.75;;;19.99
65600;BMP280;52272;-29.642;-50.764;2022-10-31T13:18:51;100864.94;;;20.09
65600;BMP280;52272;-29.642;-50.764;2022-10-31T13:21:35;100868.13;;;20.18
65600;BMP280;52272;-29.642;-50.764;2022-10-31T13:24:13;100866.41;;;19.99
65600;BMP280;52272;-29.642;-50.764;2022-10-31T13:26:50;100877.72;;;20.03
65600;BMP280;52272;-29.642;-50.764;2022-10-31T13:29:39;100873.28;;;20.00
65600;BMP280;52272;-29.642;-50.764;2022-10-31T13:32:10;100883.31;;;19.55
65600;BMP280;52272;-29.642;-50.764;2022-10-31T13:34:46;100865.78;;;19.29
65600;BMP280;52272;-29.642;-50.764;2022-10-31T13:37:43;100883.56;;;19.41
65600;BMP280;52272;-29.642;-50.764;2022-10-31T13:40:38;100887.69;;;19.31
65600;BMP280;52272;-29.642;-50.764;2022-10-31T13:46:26;100883.47;;;19.19
65600;BMP280;52272;-29.642;-50.764;2022-10-31T13:49:04;100893.53;;;19.18
65600;BMP280;52272;-29.642;-50.764;2022-10-31T13:51:52;100905.09;;;19.19
65600;BMP280;52272;-29.642;-50.764;2022-10-31T13:54:32;100911.56;;;18.96
65600;BMP280;52272;-29.642;-50.764;2022-10-31T13:57:14;100913.69;;;18.81
65600;BMP280;52272;-29.642;-50.764;2022-10-31T14:00:00;100915.66;;;18.75
65600;BMP280;52272;-29.642;-50.764;2022-10-31T14:02:47;100926.56;;;18.97
65600;BMP280;52272;-29.642;-50.764;2022-10-31T14:05:32;100905.06;;;18.35
65600;BMP280;52272;-29.642;-50.764;2022-10-31T14:08:04;100938.72;;;18.45
65600;BMP280;52272;-29.642;-50.764;2022-10-31T14:10:38;100945.25;;;18.64
65600;BMP280;52272;-29.642;-50.764;2022-10-31T14:13:27;100950.63;;;18.33
65600;BMP280;52272;-29.642;-50.764;2022-10-31T14:16:04;100949.31;;;18.23
65600;BMP280;52272;-29.642;-50.764;2022-10-31T14:18:38;100949.66;;;18.36
65600;BMP280;52272;-29.642;-50.764;2022-10-31T14:23:57;100964.28;;;18.24
65600;BMP280;52272;-29.642;-50.764;2022-10-31T14:26:33;100972.03;;;18.42
65600;BMP280;52272;-29.642;-50.764;2022-10-31T14:35:03;100998.50;;;18.38
65600;BMP280;52272;-29.642;-50.764;2022-10-31T14:37:51;101013.31;;;18.53
65600;BMP280;52272;-29.642;-50.764;2022-10-31T14:45:43;101025.50;;;18.69
65600;BMP280;52272;-29.642;-50.764;2022-10-31T14:48:50;101027.41;;;18.38
65600;BMP280;52272;-29.642;-50.764;2022-10-31T14:51:27;101030.34;;;18.34
65600;BMP280;52272;-29.642;-50.764;2022-10-31T14:53:59;101021.91;;;18.27
65600;BMP280;52272;-29.642;-50.764;2022-10-31T14:56:34;101027.16;;;18.61
65600;BMP280;52272;-29.642;-50.764;2022-10-31T14:59:13;101027.34;;;18.32
65600;BMP280;52272;-29.642;-50.764;2022-10-31T15:02:02;101036.13;;;18.27
65600;BMP280;52272;-29.642;-50.764;2022-10-31T15:04:38;101033.56;;;17.73
65600;BMP280;52272;-29.642;-50.764;2022-10-31T15:07:18;101037.16;;;17.90
65600;BMP280;52272;-29.642;-50.764;2022-10-31T15:12:30;101035.84;;;17.80
65600;BMP280;52272;-29.642;-50.764;2022-10-31T15:15:24;101027.75;;;18.00
65600;BMP280;52272;-29.642;-50.764;2022-10-31T15:17:58;101032.91;;;18.23
65600;BMP280;52272;-29.642;-50.764;2022-10-31T15:20:33;101033.63;;;17.98
65600;BMP280;52272;-29.642;-50.764;2022-10-31T15:23:11;101035.84;;;18.00
65600;BMP280;52272;-29.642;-50.764;2022-10-31T15:25:44;101038.31;;;18.23
65600;BMP280;52272;-29.642;-50.764;2022-10-31T15:28:21;101042.63;;;18.35
65600;BMP280;52272;-29.642;-50.764;2022-10-31T15:30:55;101024.06;;;18.23
65600;BMP280;52272;-29.642;-50.764;2022-10-31T15:33:28;101045.72;;;18.28
65600;BMP280;52272;-29.642;-50.764;2022-10-31T15:36:06;101059.66;;;18.47
65600;BMP280;52272;-29.642;-50.764;2022-10-31T15:38:36;101046.50;;;17.89
65600;BMP280;52272;-29.642;-50.764;2022-10-31T15:44:05;101052.75;;;17.60
65600;BMP280;52272;-29.642;-50.764;2022-10-31T15:46:36;101062.59;;;17.83
65600;BMP280;52272;-29.642;-50.764;2022-10-31T15:49:26;101051.47;;;17.96
65600;BMP280;52272;-29.642;-50.764;2022-10-31T15:52:06;101066.66;;;17.93
65600;BMP280;52272;-29.642;-50.764;2022-10-31T15:54:51;101075.66;;;17.90
65600;BMP280;52272;-29.642;-50.764;2022-10-31T15:57:23;101066.38;;;17.91
65600;BMP280;52272;-29.642;-50.764;2022-10-31T15:59:56;101085.63;;;17.64
65600;BMP280;52272;-29.642;-50.764;2022-10-31T16:02:27;101076.59;;;17.87
65600;BMP280;52272;-29.642;-50.764;2022-10-31T16:05:00;101074.13;;;17.49
65600;BMP280;52272;-29.642;-50.764;2022-10-31T16:07:31;101070.31;;;17.76
65600;BMP280;52272;-29.642;-50.764;2022-10-31T16:10:03;101088.88;;;18.08
65600;BMP280;52272;-29.642;-50.764;2022-10-31T16:12:42;101083.75;;;17.90
65600;BMP280;52272;-29.642;-50.764;2022-10-31T16:15:15;101100.47;;;18.14
65600;BMP280;52272;-29.642;-50.764;2022-10-31T16:17:50;101107.06;;;18.13
65600;BMP280;52272;-29.642;-50.764;2022-10-31T16:20:29;101118.97;;;17.87
65600;BMP280;52272;-29.642;-50.764;2022-10-31T16:23:01;101134.81;;;17.79
65600;BMP280;52272;-29.642;-50.764;2022-10-31T16:25:38;101131.50;;;17.90
65600;BMP280;52272;-29.642;-50.764;2022-10-31T16:28:23;101150.22;;;17.93
65600;BMP280;52272;-29.642;-50.764;2022-10-31T16:30:59;101151.94;;;17.47
65600;BMP280;52272;-29.642;-50.764;2022-10-31T16:33:31;101157.84;;;17.80
65600;BMP280;52272;-29.642;-50.764;2022-10-31T16:39:03;101142.38;;;17.46
65600;BMP280;52272;-29.642;-50.764;2022-10-31T16:41:40;101151.59;;;17.25
65600;BMP280;52272;-29.642;-50.764;2022-10-31T16:44:23;101151.22;;;17.47